createdAt,value
2022-08-05T00:02:08.011Z,22.37
2022-08-05T00:04:37.943Z,22.33
2022-08-05T00:07:26.873Z,22.29
2022-08-05T00:09:53.415Z,22.26
2022-08-05T00:12:21.417Z,22.20
2022-08-05T00:14:48.471Z,22.16
2022-08-05T00:17:18.772Z,22.09
2022-08-05T00:20:02.043Z,22.10
2022-08-05T00:22:29.543Z,22.12
2022-08-05T00:24:57.385Z,22.08
2022-08-05T00:27:28.317Z,22.03
2022-08-05T00:29:56.338Z,21.95
2022-08-05T00:32:22.830Z,21.92
2022-08-05T00:35:04.415Z,21.86
2022-08-05T00:37:51.222Z,21.82
2022-08-05T00:40:27.955Z,21.79
2022-08-05T00:42:59.380Z,21.71
2022-08-05T00:45:38.122Z,21.63
2022-08-05T00:48:13.490Z,21.59
2022-08-05T00:50:44.022Z,21.57
2022-08-05T00:54:00.253Z,21.48
2022-08-05T00:55:59.203Z,21.59
2022-08-05T00:58:27.221Z,21.75
2022-08-05T01:00:54.218Z,21.79
2022-08-05T01:03:22.953Z,21.77
2022-08-05T01:05:54.691Z,21.74
2022-08-05T01:08:40.762Z,21.71
2022-08-05T01:11:21.896Z,21.63
2022-08-05T01:14:09.236Z,21.55
2022-08-05T01:16:44.269Z,21.54
2022-08-05T01:19:46.165Z,21.47
2022-08-05T01:22:29.591Z,21.44
2022-08-05T01:25:40.841Z,21.42
2022-08-05T01:28:26.727Z,21.42
2022-08-05T01:31:18.076Z,21.38
2022-08-05T01:34:01.573Z,21.38
2022-08-05T01:36:32.341Z,21.37
2022-08-05T01:39:01.110Z,21.35
2022-08-05T01:41:32.524Z,21.31
2022-08-05T01:44:00.831Z,21.27
2022-08-05T01:46:42.810Z,21.27
2022-08-05T01:49:24.253Z,21.23
2022-08-05T01:51:54.992Z,21.21
2022-08-05T01:54:25.602Z,21.20
2022-08-05T01:58:09.942Z,21.20
2022-08-05T01:59:47.014Z,21.15
2022-08-05T02:02:15.944Z,21.11
2022-08-05T02:04:46.125Z,21.15
2022-08-05T02:07:16.071Z,21.12
2022-08-05T02:09:48.785Z,21.07
2022-08-05T02:12:22.000Z,21.07
2022-08-05T02:15:05.308Z,21.04
2022-08-05T02:18:31.726Z,21.06
2022-08-05T02:20:59.679Z,21.01
2022-08-05T02:23:33.664Z,21.04
2022-08-05T02:26:04.812Z,21.03
2022-08-05T02:28:41.460Z,21.10
2022-08-05T02:31:13.139Z,21.15
2022-08-05T02:33:48.827Z,21.18
2022-08-05T02:36:27.428Z,21.12
2022-08-05T02:38:56.725Z,21.12
2022-08-05T02:41:28.760Z,21.07
2022-08-05T02:44:13.178Z,21.10
2022-08-05T02:46:44.074Z,21.14
2022-08-05T02:49:36.773Z,21.14
2022-08-05T02:52:07.620Z,21.17
2022-08-05T02:54:36.995Z,21.17
2022-08-05T02:57:10.328Z,21.15
2022-08-05T02:59:55.200Z,21.14
2022-08-05T03:02:27.776Z,21.11
2022-08-05T03:04:57.257Z,21.08
2022-08-05T03:08:00.372Z,21.17
2022-08-05T03:10:15.977Z,21.23
2022-08-05T03:12:51.720Z,21.28
2022-08-05T03:15:18.493Z,21.27
2022-08-05T03:17:44.966Z,21.21
2022-08-05T03:20:11.874Z,21.12
2022-08-05T03:22:44.131Z,21.12
2022-08-05T03:25:33.053Z,21.12
2022-08-05T03:28:08.293Z,21.14
2022-08-05T03:30:35.700Z,21.12
2022-08-05T03:33:04.345Z,21.12
2022-08-05T03:35:41.501Z,21.08
2022-08-05T03:38:11.059Z,21.07
2022-08-05T03:40:45.267Z,21.01
2022-08-05T03:43:58.867Z,21.00
2022-08-05T03:46:02.742Z,20.99
2022-08-05T03:48:29.896Z,20.96
2022-08-05T03:52:35.118Z,20.96
2022-08-05T03:54:58.877Z,20.96
2022-08-05T03:57:16.269Z,20.94
2022-08-05T04:00:01.548Z,20.94
2022-08-05T04:02:37.890Z,20.94
2022-08-05T04:05:09.743Z,20.96
2022-08-05T04:07:57.442Z,20.99
2022-08-05T04:10:27.504Z,20.99
2022-08-05T04:12:54.987Z,20.99
2022-08-05T04:15:24.487Z,21.01
2022-08-05T04:17:57.145Z,21.07
2022-08-05T04:20:24.234Z,21.17
2022-08-05T04:22:50.635Z,21.26
2022-08-05T04:25:17.164Z,21.32
2022-08-05T04:27:57.555Z,21.42
2022-08-05T04:30:26.558Z,21.52
2022-08-05T04:32:53.176Z,21.61
2022-08-05T04:35:20.086Z,21.78
2022-08-05T04:38:02.285Z,21.82
2022-08-05T04:40:44.477Z,21.93
2022-08-05T04:43:17.293Z,22.05
2022-08-05T04:45:49.048Z,22.17
2022-08-05T04:48:27.835Z,22.30
2022-08-05T04:51:02.696Z,22.47
2022-08-05T04:53:33.576Z,22.64
2022-08-05T04:56:32.999Z,22.72
2022-08-05T04:58:48.945Z,22.87
2022-08-05T05:01:15.664Z,22.92
2022-08-05T05:04:00.505Z,22.97
2022-08-05T05:06:36.044Z,23.02
2022-08-05T05:09:16.852Z,23.07
2022-08-05T05:11:55.643Z,23.14
2022-08-05T05:14:27.937Z,23.20
2022-08-05T05:16:58.498Z,23.33
2022-08-05T05:19:27.489Z,23.50
2022-08-05T05:22:23.712Z,23.62
2022-08-05T05:24:56.822Z,23.77
2022-08-05T05:27:45.377Z,23.83
2022-08-05T05:30:29.804Z,23.80
2022-08-05T05:33:00.540Z,23.76
2022-08-05T05:35:27.716Z,23.87
2022-08-05T05:37:59.480Z,23.93
2022-08-05T05:40:28.343Z,24.03
2022-08-05T05:42:55.330Z,24.10
2022-08-05T05:45:23.160Z,24.07
2022-08-05T05:48:05.364Z,24.06
2022-08-05T05:50:35.708Z,24.03
2022-08-05T05:53:22.048Z,24.01
2022-08-05T05:55:52.470Z,23.98
2022-08-05T05:58:31.404Z,24.04
2022-08-05T06:01:02.466Z,24.08
2022-08-05T06:04:01.342Z,24.14
2022-08-05T06:06:30.794Z,24.21
2022-08-05T06:08:58.584Z,24.22
2022-08-05T06:11:25.162Z,24.37
2022-08-05T06:13:55.296Z,24.52
2022-08-05T06:16:29.706Z,24.85
2022-08-05T06:18:59.930Z,24.79
2022-08-05T06:21:37.037Z,24.76
2022-08-05T06:24:06.260Z,24.64
2022-08-05T06:26:37.666Z,24.66
2022-08-05T06:29:06.419Z,24.85
2022-08-05T06:31:51.421Z,25.26
2022-08-05T06:34:19.961Z,25.99
2022-08-05T06:36:56.910Z,26.50
2022-08-05T06:39:27.090Z,27.17
2022-08-05T06:41:56.232Z,28.09
2022-08-05T06:44:25.184Z,27.65
2022-08-05T06:46:52.599Z,27.31
2022-08-05T06:49:21.488Z,28.57
2022-08-05T06:52:07.661Z,29.60
2022-08-05T06:54:54.091Z,30.36
2022-08-05T06:58:03.108Z,30.63
2022-08-05T07:00:07.749Z,31.10
2022-08-05T07:02:46.729Z,30.51
2022-08-05T07:05:18.950Z,29.76
2022-08-05T07:07:48.875Z,29.20
2022-08-05T07:10:16.475Z,28.54
2022-08-05T07:13:02.013Z,27.85
2022-08-05T07:16:00.966Z,27.35
2022-08-05T07:18:31.515Z,26.87
2022-08-05T07:20:58.199Z,26.66
2022-08-05T07:23:31.275Z,26.52
2022-08-05T07:25:58.457Z,26.37
2022-08-05T07:28:25.280Z,26.11
2022-08-05T07:30:52.976Z,26.06
2022-08-05T07:33:37.221Z,26.09
2022-08-05T07:36:21.536Z,26.14
2022-08-05T07:38:48.929Z,26.82
2022-08-05T07:42:14.678Z,27.20
2022-08-05T07:44:19.145Z,27.15
2022-08-05T07:46:48.386Z,26.86
2022-08-05T07:49:15.951Z,26.42
2022-08-05T07:51:53.797Z,25.92
2022-08-05T07:54:31.355Z,25.50
2022-08-05T07:57:16.941Z,25.07
2022-08-05T07:59:49.015Z,24.69
2022-08-05T08:02:17.560Z,24.45
2022-08-05T08:04:48.663Z,24.22
2022-08-05T08:07:16.179Z,24.08
2022-08-05T08:09:44.522Z,23.98
2022-08-05T08:12:35.057Z,23.94
2022-08-05T08:15:03.549Z,23.87
2022-08-05T08:17:31.759Z,23.79
2022-08-05T08:20:10.842Z,23.77
2022-08-05T08:22:50.945Z,23.92
2022-08-05T08:25:18.187Z,23.94
2022-08-05T08:27:53.804Z,24.00
2022-08-05T08:30:32.222Z,23.96
2022-08-05T08:33:04.495Z,23.83
2022-08-05T08:35:41.358Z,23.70
2022-08-05T08:38:11.738Z,23.63
2022-08-05T08:40:46.645Z,23.65
2022-08-05T08:45:16.430Z,23.70
2022-08-05T08:46:06.305Z,23.96
2022-08-05T08:49:03.384Z,24.08
2022-08-05T08:52:03.647Z,24.22
2022-08-05T08:54:14.705Z,24.20
2022-08-05T08:56:47.804Z,24.03
2022-08-05T08:59:19.661Z,23.93
2022-08-05T09:01:57.131Z,23.81
2022-08-05T09:04:30.756Z,23.80
2022-08-05T09:06:58.471Z,23.67
2022-08-05T09:09:26.071Z,23.62
2022-08-05T09:12:14.453Z,23.56
2022-08-05T09:14:58.016Z,23.48
2022-08-05T09:17:42.985Z,23.52
2022-08-05T09:20:36.644Z,23.57
2022-08-05T09:23:19.150Z,23.69
2022-08-05T09:26:02.980Z,23.80
2022-08-05T09:28:33.548Z,23.98
2022-08-05T09:32:38.702Z,24.21
2022-08-05T09:34:00.968Z,24.27
2022-08-05T09:36:56.052Z,24.29
2022-08-05T09:39:41.392Z,24.18
2022-08-05T09:42:23.258Z,24.13
2022-08-05T09:44:52.666Z,23.93
2022-08-05T09:47:25.633Z,23.73
2022-08-05T09:50:01.959Z,23.59
2022-08-05T09:52:34.189Z,23.43
2022-08-05T09:55:57.054Z,23.32
2022-08-05T09:57:54.819Z,23.28
2022-08-05T10:00:25.761Z,23.16
2022-08-05T10:02:54.695Z,23.07
2022-08-05T10:05:24.249Z,22.99
2022-08-05T10:08:36.482Z,22.92
2022-08-05T10:10:48.281Z,22.88
2022-08-05T10:13:43.957Z,22.92
2022-08-05T10:16:37.948Z,22.94
2022-08-05T10:19:19.222Z,22.95
2022-08-05T10:21:50.593Z,23.16
2022-08-05T10:24:19.442Z,23.50
2022-08-05T10:26:54.747Z,23.79
2022-08-05T10:29:23.953Z,23.97
2022-08-05T10:32:53.685Z,24.14
2022-08-05T10:34:57.506Z,24.24
2022-08-05T10:37:37.520Z,24.54
2022-08-05T10:40:49.823Z,25.74
2022-08-05T10:43:35.889Z,25.99
2022-08-05T10:46:07.991Z,26.15
2022-08-05T10:48:53.001Z,26.37
2022-08-05T10:51:29.071Z,27.41
2022-08-05T10:54:01.076Z,29.01
2022-08-05T10:56:31.144Z,29.98
2022-08-05T10:59:12.680Z,31.27
2022-08-05T11:02:14.576Z,32.88
2022-08-05T11:04:56.973Z,32.73
2022-08-05T11:07:33.290Z,33.18
2022-08-05T11:10:22.296Z,33.57
2022-08-05T11:12:55.654Z,33.73
2022-08-05T11:16:01.193Z,33.39
2022-08-05T11:18:33.982Z,34.39
2022-08-05T11:21:06.202Z,34.87
2022-08-05T11:24:03.913Z,35.43
2022-08-05T11:26:40.446Z,35.59
2022-08-05T11:29:40.830Z,36.34
2022-08-05T11:32:25.875Z,34.32
2022-08-05T11:34:54.126Z,35.53
2022-08-05T11:38:30.853Z,35.66
2022-08-05T11:41:03.545Z,35.92
2022-08-05T11:44:05.410Z,35.08
2022-08-05T11:46:36.822Z,35.06
2022-08-05T11:49:06.131Z,35.47
2022-08-05T11:51:44.393Z,35.67
2022-08-05T11:54:33.720Z,35.72
2022-08-05T11:57:08.162Z,36.27
2022-08-05T11:59:50.155Z,36.14
2022-08-05T12:02:29.920Z,36.51
2022-08-05T12:04:59.845Z,36.74
2022-08-05T12:08:04.437Z,36.76
2022-08-05T12:10:19.539Z,36.14
2022-08-05T12:12:46.634Z,36.20
2022-08-05T12:15:34.636Z,36.16
2022-08-05T12:18:10.471Z,36.41
2022-08-05T12:20:38.587Z,35.53
2022-08-05T12:23:11.996Z,33.15
2022-08-05T12:25:56.889Z,33.17
2022-08-05T12:28:33.739Z,33.12
2022-08-05T12:31:02.206Z,34.16
2022-08-05T12:33:37.172Z,33.18
2022-08-05T12:36:08.170Z,33.97
2022-08-05T12:38:39.990Z,34.23
2022-08-05T12:41:13.443Z,33.58
2022-08-05T12:43:57.302Z,31.26
2022-08-05T12:46:29.589Z,31.14
2022-08-05T12:49:13.931Z,31.61
2022-08-05T12:52:14.113Z,31.89
2022-08-05T12:54:45.389Z,32.59
2022-08-05T12:57:13.109Z,33.37
2022-08-05T13:01:58.022Z,33.66
2022-08-05T13:02:41.012Z,33.12
2022-08-05T13:05:08.202Z,32.56
2022-08-05T13:07:59.558Z,32.22
2022-08-05T13:10:26.362Z,31.93
2022-08-05T13:12:58.124Z,31.78
2022-08-05T13:15:41.923Z,31.67
2022-08-05T13:18:19.875Z,31.74
2022-08-05T13:20:47.594Z,32.12
2022-08-05T13:23:16.410Z,32.88
2022-08-05T13:25:52.520Z,32.97
2022-08-05T13:28:26.729Z,32.48
2022-08-05T13:30:53.622Z,32.08
2022-08-05T13:34:21.307Z,31.58
2022-08-05T13:36:09.142Z,31.26
2022-08-05T13:38:41.985Z,30.97
2022-08-05T13:41:09.319Z,30.46
2022-08-05T13:43:45.924Z,30.27
2022-08-05T13:49:12.601Z,30.14
2022-08-05T13:51:41.252Z,30.08
2022-08-05T13:54:11.723Z,29.88
2022-08-05T13:56:45.389Z,29.87
2022-08-05T13:59:20.231Z,29.90
2022-08-05T14:01:59.175Z,29.88
2022-08-05T14:04:51.477Z,29.88
2022-08-05T14:07:26.114Z,30.14
2022-08-05T14:10:19.107Z,30.31
2022-08-05T14:12:56.019Z,30.07
2022-08-05T14:16:06.853Z,30.43
2022-08-05T14:18:15.045Z,30.51
2022-08-05T14:20:47.683Z,30.27
2022-08-05T14:23:19.090Z,29.53
2022-08-05T14:25:54.277Z,29.32
2022-08-05T14:28:26.822Z,29.56
2022-08-05T14:30:53.689Z,29.47
2022-08-05T14:33:23.244Z,29.62
2022-08-05T14:35:51.807Z,29.12
2022-08-05T14:38:31.987Z,29.06
2022-08-05T14:41:00.636Z,28.76
2022-08-05T14:43:59.355Z,28.78
2022-08-05T14:46:13.502Z,28.54
2022-08-05T14:48:39.953Z,28.23
2022-08-05T14:51:06.357Z,28.16
2022-08-05T14:53:34.880Z,28.00
2022-08-05T14:56:11.123Z,27.75
2022-08-05T14:58:38.515Z,27.70
2022-08-05T15:01:16.054Z,27.55
2022-08-05T15:03:43.267Z,27.45
2022-08-05T15:06:15.489Z,27.25
2022-08-05T15:09:01.295Z,27.17
2022-08-05T15:11:52.642Z,26.93
2022-08-05T15:14:34.561Z,26.72
2022-08-05T15:17:09.657Z,26.60
2022-08-05T15:19:40.916Z,26.50
2022-08-05T15:22:15.978Z,26.40
2022-08-05T15:24:42.414Z,26.25
2022-08-05T15:27:08.928Z,26.09
2022-08-05T15:29:42.158Z,26.08
2022-08-05T15:32:08.799Z,25.92
2022-08-05T15:34:35.199Z,25.68
2022-08-05T15:37:05.081Z,25.54
2022-08-05T15:40:59.590Z,25.54
2022-08-05T15:42:56.682Z,25.57
2022-08-05T15:45:07.405Z,25.46
2022-08-05T15:47:36.384Z,25.46
2022-08-05T15:50:03.875Z,25.38
2022-08-05T15:52:53.808Z,25.46
2022-08-05T15:55:24.454Z,25.48
2022-08-05T15:57:51.849Z,25.46
2022-08-05T16:00:25.953Z,25.34
2022-08-05T16:02:59.693Z,25.43
2022-08-05T16:05:28.494Z,25.43
2022-08-05T16:07:55.071Z,25.36
2022-08-05T16:10:25.575Z,25.24
2022-08-05T16:12:53.621Z,25.13
2022-08-05T16:15:24.030Z,25.16
2022-08-05T16:17:58.969Z,25.05
2022-08-05T16:20:25.946Z,25.02
2022-08-05T16:22:54.438Z,25.00
2022-08-05T16:25:20.854Z,24.86
2022-08-05T16:28:05.364Z,24.83
2022-08-05T16:30:34.249Z,24.79
2022-08-05T16:33:02.797Z,24.65
2022-08-05T16:35:33.509Z,24.61
2022-08-05T16:38:15.304Z,24.59
2022-08-05T16:40:55.760Z,24.44
2022-08-05T16:43:27.857Z,24.42
2022-08-05T16:46:05.827Z,24.37
2022-08-05T16:48:37.488Z,24.34
2022-08-05T16:51:09.492Z,24.20
2022-08-05T16:54:02.502Z,24.06
2022-08-05T16:56:25.829Z,23.88
2022-08-05T16:58:52.236Z,23.80
2022-08-05T17:01:19.126Z,23.67
2022-08-05T17:03:46.040Z,23.49
2022-08-05T17:06:12.725Z,23.23
2022-08-05T17:08:52.740Z,23.05
2022-08-05T17:11:20.522Z,22.79
2022-08-05T17:13:50.607Z,22.61
2022-08-05T17:16:32.672Z,22.41
2022-08-05T17:19:00.727Z,22.21
2022-08-05T17:21:35.602Z,21.95
2022-08-05T17:24:08.077Z,21.71
2022-08-05T17:26:46.905Z,21.48
2022-08-05T17:29:14.469Z,21.37
2022-08-05T17:31:56.513Z,21.10
2022-08-05T17:34:29.771Z,20.83
2022-08-05T17:36:56.956Z,20.62
2022-08-05T17:39:24.086Z,20.39
2022-08-05T17:42:19.265Z,20.25
2022-08-05T17:44:50.507Z,20.11
2022-08-05T17:47:22.885Z,19.95
2022-08-05T17:49:52.054Z,19.84
2022-08-05T17:52:30.633Z,19.71
2022-08-05T17:54:57.717Z,19.67
2022-08-05T17:57:24.588Z,19.67
2022-08-05T18:00:03.648Z,19.56
2022-08-05T18:02:32.553Z,19.51
2022-08-05T18:05:02.772Z,19.47
2022-08-05T18:07:32.880Z,19.47
2022-08-05T18:10:10.473Z,19.40
2022-08-05T18:12:37.472Z,19.18
2022-08-05T18:15:04.951Z,19.12
2022-08-05T18:17:59.677Z,18.96
2022-08-05T18:20:19.361Z,18.87
2022-08-05T18:22:57.518Z,18.82
2022-08-05T18:25:25.209Z,18.76
2022-08-05T18:27:59.395Z,18.68
2022-08-05T18:30:29.188Z,18.68
2022-08-05T18:32:59.980Z,18.67
2022-08-05T18:35:49.486Z,18.65
2022-08-05T18:38:16.460Z,18.64
2022-08-05T18:41:56.810Z,18.64
2022-08-05T18:43:38.245Z,18.62
2022-08-05T18:46:10.107Z,18.62
2022-08-05T18:48:41.649Z,18.61
2022-08-05T18:52:06.598Z,18.54
2022-08-05T18:54:13.728Z,18.52
2022-08-05T18:56:40.361Z,18.37
2022-08-05T18:59:43.351Z,18.33
2022-08-05T19:01:57.206Z,18.24
2022-08-05T19:04:25.539Z,18.17
2022-08-05T19:06:53.598Z,18.13
2022-08-05T19:09:20.397Z,18.06
2022-08-05T19:12:00.767Z,18.01
2022-08-05T19:14:44.512Z,18.04
2022-08-05T19:17:16.192Z,17.99
2022-08-05T19:19:46.750Z,17.93
2022-08-05T19:22:17.117Z,17.97
2022-08-05T19:24:56.297Z,17.94
2022-08-05T19:27:23.478Z,17.89
2022-08-05T19:29:50.155Z,17.85
2022-08-05T19:32:16.529Z,17.80
2022-08-05T19:34:54.555Z,17.78
2022-08-05T19:37:34.926Z,17.76
2022-08-05T19:40:10.534Z,17.69
2022-08-05T19:42:38.861Z,17.56
2022-08-05T19:45:07.073Z,17.52
2022-08-05T19:47:37.457Z,17.42
2022-08-05T19:50:05.991Z,17.39
2022-08-05T19:52:32.688Z,17.34
2022-08-05T19:55:06.790Z,17.31
2022-08-05T19:58:06.667Z,17.25
2022-08-05T20:00:34.690Z,17.20
2022-08-05T20:03:01.106Z,17.14
2022-08-05T20:05:49.830Z,17.21
2022-08-05T20:08:17.131Z,17.24
2022-08-05T20:10:43.544Z,17.18
2022-08-05T20:13:10.854Z,17.14
2022-08-05T20:15:52.240Z,17.14
2022-08-05T20:18:33.424Z,17.12
2022-08-05T20:21:02.018Z,17.18
2022-08-05T20:23:40.033Z,17.20
2022-08-05T20:26:20.143Z,17.18
2022-08-05T20:28:48.737Z,17.18
2022-08-05T20:31:16.624Z,17.18
2022-08-05T20:33:44.485Z,17.22
2022-08-05T20:36:11.469Z,17.21
2022-08-05T20:38:40.825Z,17.20
2022-08-05T20:41:24.133Z,17.20
2022-08-05T20:43:59.712Z,17.17
2022-08-05T20:46:29.293Z,17.06
2022-08-05T20:48:55.724Z,17.00
2022-08-05T20:51:22.123Z,16.88
2022-08-05T20:53:56.343Z,16.77
2022-08-05T20:56:28.191Z,16.70
2022-08-05T20:59:00.166Z,16.66
2022-08-05T21:01:40.365Z,16.69
2022-08-05T21:04:09.939Z,16.69
2022-08-05T21:06:45.763Z,16.70
2022-08-05T21:09:14.345Z,16.69
2022-08-05T21:12:06.870Z,16.66
2022-08-05T21:14:28.941Z,16.60
2022-08-05T21:17:01.147Z,16.53
2022-08-05T21:19:29.511Z,16.48
2022-08-05T21:22:14.197Z,16.46
2022-08-05T21:24:40.904Z,16.42
2022-08-05T21:27:09.077Z,16.38
2022-08-05T21:29:40.567Z,16.33
2022-08-05T21:32:07.506Z,16.26
2022-08-05T21:34:35.499Z,16.23
2022-08-05T21:37:02.172Z,16.21
2022-08-05T21:39:29.127Z,16.19
2022-08-05T21:42:01.317Z,16.16
2022-08-05T21:44:29.852Z,16.18
2022-08-05T21:46:58.185Z,16.16
2022-08-05T21:49:48.149Z,16.16
2022-08-05T21:52:21.457Z,16.12
2022-08-05T21:54:51.885Z,16.05
2022-08-05T21:57:31.349Z,16.01
2022-08-05T22:00:10.697Z,15.97
2022-08-05T22:02:38.066Z,15.90
2022-08-05T22:05:04.866Z,15.84
2022-08-05T22:07:39.740Z,15.80
2022-08-05T22:10:26.561Z,15.74
2022-08-05T22:12:54.620Z,15.72
2022-08-05T22:16:01.097Z,15.70
2022-08-05T22:18:11.146Z,15.67
2022-08-05T22:20:39.204Z,15.64
2022-08-05T22:23:25.324Z,15.64
2022-08-05T22:26:37.699Z,15.57
2022-08-05T22:29:05.685Z,15.50
2022-08-05T22:31:44.948Z,15.55
2022-08-05T22:34:12.877Z,15.63
2022-08-05T22:36:46.968Z,15.67
2022-08-05T22:39:19.725Z,15.75
2022-08-05T22:42:11.385Z,15.77
2022-08-05T22:44:34.497Z,15.74
2022-08-05T22:47:00.978Z,15.70
2022-08-05T22:50:22.962Z,15.63
2022-08-05T22:52:30.171Z,15.60
2022-08-05T22:54:59.286Z,15.58
2022-08-05T22:57:26.437Z,15.55
2022-08-05T22:59:54.269Z,15.50
2022-08-05T23:02:28.886Z,15.47
2022-08-05T23:04:57.820Z,15.46
2022-08-05T23:07:28.496Z,15.46
2022-08-05T23:10:01.073Z,15.49
2022-08-05T23:12:32.655Z,15.51
2022-08-05T23:15:01.396Z,15.46
2022-08-05T23:17:35.086Z,15.50
2022-08-05T23:20:16.719Z,15.47
2022-08-05T23:22:48.291Z,15.46
2022-08-05T23:25:17.019Z,15.50
2022-08-05T23:28:03.627Z,15.41
2022-08-05T23:30:40.672Z,15.39
2022-08-05T23:33:16.163Z,15.36
2022-08-05T23:35:49.660Z,15.30
2022-08-05T23:38:16.149Z,15.26
2022-08-05T23:40:49.981Z,15.20
2022-08-05T23:43:25.047Z,15.18
2022-08-05T23:46:05.100Z,15.18
2022-08-05T23:48:46.964Z,15.09
2022-08-05T23:51:28.105Z,15.00
2022-08-05T23:54:00.075Z,14.92
2022-08-05T23:56:27.744Z,14.88
2022-08-05T23:58:54.182Z,14.83
